Time;durP1;ratioP1;P1;durP2;ratioP2;P2;SDS_P1;SDS_P2;PMS_P1;PMS_P2;Temp;Humidity;BMP_temperature;BMP_pressure;BME280_temperature;BME280_humidity;BME280_pressure;Samples;Min_cycle;Max_cycle;Signal;HPM_P1;HPM_P2
2021/08/08 00:01:20;;;;;;;6.82;1.30;;;;;;;16.52;76.51;99154.75;2196946;40;20066;-79
2021/08/08 00:02:52;;;;;;;5.88;1.42;;;;;;;16.51;76.36;99154.97;2195545;40;20042;-78
2021/08/08 00:04:24;;;;;;;4.25;1.40;;;;;;;16.52;76.27;99145.84;2195749;40;20042;-79
2021/08/08 00:05:56;;;;;;;4.35;1.27;;;;;;;16.51;76.54;99145.00;2196764;40;20034;-79
2021/08/08 00:07:28;;;;;;;2.92;1.10;;;;;;;16.55;76.56;99145.41;2195676;40;20070;-79
2021/08/08 00:09:00;;;;;;;4.97;1.20;;;;;;;16.55;76.55;99145.41;2195882;40;20363;-78
2021/08/08 00:10:32;;;;;;;3.75;1.10;;;;;;;16.57;76.11;99146.06;2195934;40;20038;-78
2021/08/08 00:12:06;;;;;;;3.92;1.15;;;;;;;16.56;76.17;99147.09;2196649;40;20415;-79
2021/08/08 00:13:38;;;;;;;3.95;1.40;;;;;;;16.54;75.96;99141.06;2195896;40;20059;-78
2021/08/08 00:15:11;;;;;;;4.78;1.15;;;;;;;16.50;75.98;99154.13;2197754;40;20038;-78
2021/08/08 00:16:43;;;;;;;4.82;1.20;;;;;;;16.49;75.79;99152.47;2196127;40;20031;-78
2021/08/08 00:18:15;;;;;;;4.13;1.00;;;;;;;16.49;75.82;99148.94;2196067;40;20121;-79
2021/08/08 00:19:47;;;;;;;4.30;1.08;;;;;;;16.47;76.05;99141.06;2195842;40;20077;-79
2021/08/08 00:21:18;;;;;;;3.88;1.27;;;;;;;16.44;75.91;99146.00;2196268;40;20049;-79
2021/08/08 00:22:50;;;;;;;4.22;1.10;;;;;;;16.41;75.67;99151.84;2196666;40;20050;-79
2021/08/08 00:24:21;;;;;;;3.67;1.08;;;;;;;16.38;75.61;99156.59;2196038;40;20031;-78
2021/08/08 00:25:53;;;;;;;3.25;1.10;;;;;;;16.36;75.65;99155.97;2196397;40;20039;-77
2021/08/08 00:27:26;;;;;;;3.10;1.02;;;;;;;16.34;75.75;99160.72;2196014;40;20449;-78
2021/08/08 00:28:59;;;;;;;4.05;1.02;;;;;;;16.31;75.56;99161.16;2195924;40;20061;-79
2021/08/08 00:30:31;;;;;;;4.75;0.98;;;;;;;16.30;75.61;99161.34;2195648;40;20043;-79
2021/08/08 00:32:02;;;;;;;3.72;0.93;;;;;;;16.30;75.45;99159.50;2196366;40;20042;-78
2021/08/08 00:33:34;;;;;;;3.50;1.00;;;;;;;16.28;75.56;99161.56;2195502;40;20019;-79
2021/08/08 00:35:08;;;;;;;2.30;1.10;;;;;;;16.28;75.70;99164.25;2197069;40;20046;-79
2021/08/08 00:36:40;;;;;;;3.80;1.17;;;;;;;16.25;75.49;99163.84;2195813;40;20134;-79
2021/08/08 00:38:12;;;;;;;4.28;1.10;;;;;;;16.23;75.41;99155.97;2195554;40;20069;-79
2021/08/08 00:39:43;;;;;;;3.00;0.90;;;;;;;16.26;75.50;99163.63;2196011;40;20042;-79
2021/08/08 00:41:15;;;;;;;2.95;0.98;;;;;;;16.24;75.35;99154.06;2195837;40;20359;-78
2021/08/08 00:42:49;;;;;;;4.88;0.90;;;;;;;16.23;75.34;99158.66;2195729;40;20046;-79
2021/08/08 00:44:21;;;;;;;3.13;0.90;;;;;;;16.22;75.11;99160.50;2195652;40;20035;-78
2021/08/08 00:45:53;;;;;;;4.70;0.90;;;;;;;16.22;75.08;99163.19;2195804;40;20039;-78
2021/08/08 00:47:25;;;;;;;2.33;0.90;;;;;;;16.25;74.94;99171.94;2196115;40;20027;-79
2021/08/08 00:48:56;;;;;;;3.78;0.80;;;;;;;16.25;75.17;99164.66;2195505;40;20031;-78
2021/08/08 00:50:28;;;;;;;2.90;0.80;;;;;;;16.27;74.72;99167.97;2197281;40;20042;-78
2021/08/08 00:52:01;;;;;;;2.45;0.80;;;;;;;16.25;74.54;99167.34;2197112;40;20031;-78
2021/08/08 00:53:32;;;;;;;2.65;0.77;;;;;;;16.25;74.47;99167.34;2196254;40;20031;-79
2021/08/08 00:55:06;;;;;;;3.22;1.00;;;;;;;16.22;74.46;99163.19;2196505;40;20532;-78
2021/08/08 00:56:38;;;;;;;2.53;0.73;;;;;;;16.20;74.42;99161.75;2196048;40;20054;-79
2021/08/08 00:58:11;;;;;;;3.20;1.25;;;;;;;16.21;74.69;99166.09;2196299;40;20031;-78
2021/08/08 00:59:43;;;;;;;3.97;1.10;;;;;;;16.19;74.60;99165.47;2197611;40;20038;-79
2021/08/08 01:01:17;;;;;;;3.08;0.90;;;;;;;16.16;74.32;99163.19;2195873;40;20034;-78
2021/08/08 01:02:53;;;;;;;3.88;1.15;;;;;;;16.14;74.33;99166.09;2196149;40;20058;-79
2021/08/08 01:04:30;;;;;;;2.95;0.82;;;;;;;16.13;74.47;99158.22;2196257;40;20050;-78
2021/08/08 01:06:08;;;;;;;2.78;0.80;;;;;;;16.14;74.38;99154.47;2195967;40;20038;-78
2021/08/08 01:07:46;;;;;;;3.00;0.80;;;;;;;16.14;74.16;99171.47;2194794;40;20403;-78
2021/08/08 01:09:19;;;;;;;3.83;1.00;;;;;;;16.15;74.48;99170.44;2194659;40;20046;-78
2021/08/08 01:10:53;;;;;;;3.38;0.98;;;;;;;16.14;74.26;99173.34;2195644;40;20034;-78
2021/08/08 01:12:25;;;;;;;3.33;0.90;;;;;;;16.16;74.09;99163.19;2196272;40;20045;-79
2021/08/08 01:14:00;;;;;;;2.45;0.77;;;;;;;16.18;74.28;99169.19;2196159;40;20037;-78
2021/08/08 01:15:32;;;;;;;2.28;0.90;;;;;;;16.17;74.28;99167.53;2195722;40;20415;-79
2021/08/08 01:17:05;;;;;;;2.40;1.10;;;;;;;16.17;74.28;99170.22;2195621;40;20039;-78
2021/08/08 01:18:38;;;;;;;2.53;0.90;;;;;;;16.14;74.35;99170.66;2195876;40;20319;-79
2021/08/08 01:20:13;;;;;;;2.22;0.90;;;;;;;16.13;73.98;99177.09;2195794;40;20303;-78
2021/08/08 01:21:47;;;;;;;4.07;0.80;;;;;;;16.09;74.32;99173.97;2195148;40;20728;-79
2021/08/08 01:23:20;;;;;;;2.95;0.98;;;;;;;16.05;74.29;99184.31;2194653;40;20039;-78
2021/08/08 01:24:53;;;;;;;2.85;0.73;;;;;;;16.03;74.59;99193.63;2195684;40;20422;-78
2021/08/08 01:26:25;;;;;;;5.43;1.00;;;;;;;16.01;74.60;99185.75;2195636;40;20046;-78
2021/08/08 01:27:59;;;;;;;3.03;0.95;;;;;;;16.02;74.60;99184.72;2196342;40;20046;-78
2021/08/08 01:29:31;;;;;;;2.17;0.50;;;;;;;16.04;74.36;99189.88;2196502;40;20046;-79
2021/08/08 01:31:03;;;;;;;2.45;0.85;;;;;;;16.03;74.39;99194.47;2196083;40;20055;-78
2021/08/08 01:32:35;;;;;;;3.78;0.85;;;;;;;16.03;74.29;99189.06;2196301;40;20049;-79
2021/08/08 01:34:07;;;;;;;3.17;0.70;;;;;;;16.06;74.29;99191.34;2194515;40;20050;-79
2021/08/08 01:35:38;;;;;;;2.22;0.73;;;;;;;16.07;73.99;99197.59;2195919;40;20035;-78
2021/08/08 01:37:11;;;;;;;2.88;0.90;;;;;;;16.08;73.95;99195.72;2195367;40;20311;-79
2021/08/08 01:38:46;;;;;;;3.10;1.02;;;;;;;16.09;74.21;99194.69;2195158;40;20046;-79
2021/08/08 01:40:25;;;;;;;2.90;0.90;;;;;;;16.08;74.23;99198.41;2195450;40;20421;-78
2021/08/08 01:41:58;;;;;;;2.90;0.70;;;;;;;16.06;74.06;99199.44;2194449;40;20517;-78
2021/08/08 01:43:32;;;;;;;4.38;1.02;;;;;;;16.09;74.17;99197.38;2194506;40;20031;-78
2021/08/08 01:45:05;;;;;;;2.05;0.70;;;;;;;16.06;73.82;99196.75;2194776;40;20057;-78
2021/08/08 01:46:39;;;;;;;5.82;1.15;;;;;;;16.08;73.92;99198.41;2197196;40;20069;-78
2021/08/08 01:48:13;;;;;;;2.35;0.70;;;;;;;16.06;74.02;99196.75;2195812;40;20391;-78
2021/08/08 01:49:45;;;;;;;3.33;0.70;;;;;;;16.10;74.05;99199.03;2197379;40;20610;-78
2021/08/08 01:51:18;;;;;;;2.60;0.70;;;;;;;16.10;73.88;99196.34;2195117;40;20050;-78
2021/08/08 01:52:50;;;;;;;2.38;0.80;;;;;;;16.10;73.98;99196.34;2195825;40;20638;-78
2021/08/08 01:54:22;;;;;;;4.65;1.30;;;;;;;16.10;73.95;99201.75;2195658;40;20684;-78
2021/08/08 01:55:55;;;;;;;2.28;0.90;;;;;;;16.05;74.04;99200.50;2195080;40;20042;-78
2021/08/08 01:57:27;;;;;;;2.58;0.70;;;;;;;16.05;74.01;99195.09;2195375;40;20031;-79
2021/08/08 01:58:59;;;;;;;2.85;0.63;;;;;;;16.03;74.38;99199.84;2196851;40;20031;-79
2021/08/08 02:00:32;;;;;;;2.65;0.77;;;;;;;16.00;74.18;99200.25;2195337;40;20034;-79
2021/08/08 02:02:14;;;;;;;3.70;1.00;;;;;;;15.99;74.40;99195.88;2194779;40;20073;-78
2021/08/08 02:03:46;;;;;;;3.15;0.85;;;;;;;15.95;74.37;99197.34;2194761;40;20382;-79
2021/08/08 02:05:20;;;;;;;2.65;0.80;;;;;;;15.95;74.61;99201.88;2194875;40;20031;-79
2021/08/08 02:06:52;;;;;;;2.28;0.70;;;;;;;15.93;74.56;99196.69;2195621;40;20038;-79
2021/08/08 02:08:24;;;;;;;3.00;0.95;;;;;;;15.89;74.59;99207.06;2195513;40;20035;-79
2021/08/08 02:09:56;;;;;;;3.15;1.00;;;;;;;15.86;74.62;99203.94;2196017;40;20046;-78
2021/08/08 02:11:29;;;;;;;2.58;0.90;;;;;;;15.86;74.80;99206.63;2195307;40;20069;-79
2021/08/08 02:13:01;;;;;;;2.22;0.80;;;;;;;15.87;74.91;99209.09;2197157;40;20046;-77
2021/08/08 02:14:33;;;;;;;2.65;0.60;;;;;;;15.88;74.58;99212.63;2195229;40;20176;-79
2021/08/08 02:16:05;;;;;;;4.13;0.90;;;;;;;15.85;74.63;99210.34;2195670;40;20031;-79
2021/08/08 02:17:37;;;;;;;3.00;0.63;;;;;;;15.85;74.74;99213.03;2195423;40;20034;-78
2021/08/08 02:19:08;;;;;;;1.70;0.50;;;;;;;15.85;74.72;99210.34;2195372;40;20035;-78
2021/08/08 02:20:40;;;;;;;3.22;1.08;;;;;;;15.87;74.70;99208.28;2195456;40;20050;-78
2021/08/08 02:22:12;;;;;;;2.22;0.68;;;;;;;15.89;74.78;99216.97;2196809;40;20038;-79
2021/08/08 02:23:44;;;;;;;2.50;0.70;;;;;;;15.90;74.79;99218.66;2195695;40;20038;-79
2021/08/08 02:25:16;;;;;;;6.82;1.02;;;;;;;15.93;74.92;99220.09;2195910;40;20030;-78
2021/08/08 02:26:49;;;;;;;2.05;0.70;;;;;;;15.93;74.69;99218.25;2195152;40;20038;-79
2021/08/08 02:28:21;;;;;;;3.22;0.85;;;;;;;15.95;74.78;99221.59;2194549;40;20031;-78
2021/08/08 02:29:52;;;;;;;2.63;0.77;;;;;;;15.95;74.52;99210.81;2195446;40;20399;-78
2021/08/08 02:31:24;;;;;;;2.55;0.70;;;;;;;15.94;74.85;99211.84;2195334;40;20042;-78
2021/08/08 02:32:56;;;;;;;4.78;0.70;;;;;;;15.91;74.64;99214.94;2195925;40;20038;-78
2021/08/08 02:34:27;;;;;;;5.55;0.80;;;;;;;15.91;74.49;99214.94;2194764;40;20481;-78
2021/08/08 02:35:59;;;;;;;2.30;0.90;;;;;;;15.89;74.79;99217.84;2195549;40;20035;-79
2021/08/08 02:37:31;;;;;;;2.47;0.88;;;;;;;15.90;74.61;99222.19;2194849;40;20320;-78
2021/08/08 02:39:04;;;;;;;3.15;0.98;;;;;;;15.89;74.54;99225.91;2195204;40;20410;-78
2021/08/08 02:40:36;;;;;;;4.03;1.00;;;;;;;15.88;74.90;99228.78;2195352;40;20038;-77
2021/08/08 02:42:09;;;;;;;1.92;0.73;;;;;;;15.86;74.74;99222.78;2195111;40;20063;-77
2021/08/08 02:43:41;;;;;;;4.65;0.65;;;;;;;15.86;74.83;99230.88;2195499;40;20759;-79
2021/08/08 02:45:13;;;;;;;2.05;0.60;;;;;;;15.85;74.73;99237.28;2195569;40;20042;-79
2021/08/08 02:46:44;;;;;;;3.15;0.80;;;;;;;15.85;74.99;99237.28;2195279;40;20031;-78
2021/08/08 02:48:17;;;;;;;2.50;0.70;;;;;;;15.83;74.96;99233.94;2194785;40;20031;-80
2021/08/08 02:49:48;;;;;;;2.80;1.27;;;;;;;15.83;75.14;99242.00;2195378;40;20058;-79
2021/08/08 02:51:20;;;;;;;4.22;0.90;;;;;;;15.82;74.80;99233.06;2194884;40;20042;-80
2021/08/08 02:52:53;;;;;;;2.63;0.77;;;;;;;15.80;74.97;99228.94;2195233;40;20039;-78
2021/08/08 02:54:25;;;;;;;2.40;0.80;;;;;;;15.82;74.85;99232.25;2195277;40;20038;-78
2021/08/08 02:55:57;;;;;;;2.45;0.80;;;;;;;15.83;74.91;99239.31;2189046;40;20358;-75
2021/08/08 02:57:31;;;;;;;3.22;0.70;;;;;;;15.81;75.07;99246.75;2196209;40;20391;-79
2021/08/08 02:59:02;;;;;;;1.77;0.68;;;;;;;15.81;74.92;99242.22;2194902;40;20035;-78
2021/08/08 03:00:34;;;;;;;2.35;0.73;;;;;;;15.84;74.86;99241.00;2196146;40;20039;-77
2021/08/08 03:02:06;;;;;;;5.15;0.80;;;;;;;15.88;74.79;99244.97;2194733;40;20523;-78
2021/08/08 03:03:39;;;;;;;2.33;0.50;;;;;;;15.90;75.00;99251.00;2194741;40;20055;-78
2021/08/08 03:05:11;;;;;;;2.03;0.65;;;;;;;15.92;74.67;99248.94;2194678;40;20049;-78
2021/08/08 03:06:48;;;;;;;3.00;0.70;;;;;;;15.94;74.64;99254.13;2195386;40;20066;-78
2021/08/08 03:08:20;;;;;;;2.88;0.75;;;;;;;15.92;74.80;99264.28;2193823;40;20054;-78
2021/08/08 03:09:51;;;;;;;6.63;0.90;;;;;;;15.93;74.67;99266.78;2196440;40;20034;-78
2021/08/08 03:11:23;;;;;;;2.45;0.70;;;;;;;15.89;74.75;99268.19;2194212;40;20038;-78
2021/08/08 03:12:56;;;;;;;1.50;0.60;;;;;;;15.85;75.02;99270.44;2194666;40;20039;-78
2021/08/08 03:14:28;;;;;;;2.38;0.70;;;;;;;15.83;75.05;99271.66;2195410;40;20426;-78
2021/08/08 03:16:00;;;;;;;4.93;0.70;;;;;;;15.81;75.43;99265.63;2195357;40;20059;-78
2021/08/08 03:17:32;;;;;;;3.92;0.70;;;;;;;15.76;75.38;99266.22;2196001;40;20027;-78
2021/08/08 03:19:04;;;;;;;2.40;0.70;;;;;;;15.74;75.62;99279.91;2198196;40;20038;-78
2021/08/08 03:20:35;;;;;;;1.88;0.50;;;;;;;15.73;75.26;99278.22;2196045;40;20031;-79
2021/08/08 03:22:07;;;;;;;2.28;0.70;;;;;;;15.71;75.42;99284.84;2195914;40;20548;-79
2021/08/08 03:23:38;;;;;;;3.20;0.80;;;;;;;15.72;75.52;99284.66;2195943;40;20027;-78
2021/08/08 03:25:10;;;;;;;1.80;0.68;;;;;;;15.73;75.58;99289.00;2195463;40;20038;-78
2021/08/08 03:26:41;;;;;;;5.53;0.98;;;;;;;15.74;75.55;99287.13;2196427;40;20035;-77
2021/08/08 03:28:14;;;;;;;3.67;1.00;;;;;;;15.73;75.56;99299.78;2182639;40;20044;-79
2021/08/08 03:29:46;;;;;;;2.35;0.70;;;;;;;15.72;75.75;99295.41;2195541;40;20039;-78
2021/08/08 03:31:19;;;;;;;2.72;0.68;;;;;;;15.71;75.50;99292.94;2195818;40;20047;-79
2021/08/08 03:32:50;;;;;;;1.77;0.60;;;;;;;15.71;75.65;99290.25;2195906;40;20031;-78
2021/08/08 03:34:22;;;;;;;2.13;0.60;;;;;;;15.71;75.80;99291.06;2196049;40;20050;-79
2021/08/08 03:35:54;;;;;;;2.17;0.73;;;;;;;15.70;75.59;99289.38;2195464;40;20043;-78
2021/08/08 03:37:26;;;;;;;2.28;0.70;;;;;;;15.67;75.78;99291.66;2196550;40;21262;-78
2021/08/08 03:38:59;;;;;;;2.00;0.70;;;;;;;15.71;76.08;99285.66;2196179;40;20042;-78
2021/08/08 03:40:30;;;;;;;2.08;0.47;;;;;;;15.75;75.56;99295.03;2196342;40;20023;-78
2021/08/08 03:42:02;;;;;;;1.60;0.52;;;;;;;15.79;75.55;99289.25;2196186;40;20043;-78
2021/08/08 03:43:35;;;;;;;2.78;0.68;;;;;;;15.79;75.52;99295.47;2196439;40;20038;-79
2021/08/08 03:45:08;;;;;;;1.83;0.70;;;;;;;15.80;75.56;99293.59;2196033;40;20057;-78
2021/08/08 03:46:40;;;;;;;3.22;1.00;;;;;;;15.83;75.51;99298.59;2197830;40;20034;-79
2021/08/08 03:48:12;;;;;;;5.43;1.10;;;;;;;15.81;75.36;99298.81;2196061;40;20030;-78
2021/08/08 03:49:44;;;;;;;3.28;0.88;;;;;;;15.74;75.69;99301.47;2195989;40;20042;-78
2021/08/08 03:51:17;;;;;;;2.03;0.75;;;;;;;15.75;76.04;99308.50;2196659;40;20038;-78
2021/08/08 03:52:48;;;;;;;5.07;1.00;;;;;;;15.75;75.92;99313.91;2196432;40;20363;-78
2021/08/08 03:54:21;;;;;;;2.20;1.08;;;;;;;15.78;75.93;99311.81;2196749;40;20418;-79
2021/08/08 03:55:53;;;;;;;3.05;0.70;;;;;;;15.80;75.80;99320.53;2195253;40;20062;-77
2021/08/08 03:57:24;;;;;;;2.70;0.80;;;;;;;15.79;75.90;99319.72;2196212;40;20319;-79
2021/08/08 03:58:58;;;;;;;5.50;1.50;;;;;;;15.77;75.84;99329.03;2195659;40;20043;-79
2021/08/08 04:00:29;;;;;;;3.20;0.57;;;;;;;15.75;75.71;99324.69;2196297;40;20366;-78
2021/08/08 04:02:01;;;;;;;2.17;0.77;;;;;;;15.74;75.95;99332.94;2194464;40;20300;-78
2021/08/08 04:03:37;;;;;;;2.00;0.70;;;;;;;15.77;75.77;99326.34;2196350;40;20042;-79
2021/08/08 04:05:10;;;;;;;3.35;1.10;;;;;;;15.77;75.68;99320.97;2196270;40;20042;-78
2021/08/08 04:06:42;;;;;;;3.28;0.98;;;;;;;15.78;75.89;99322.59;2195851;40;20038;-78
2021/08/08 04:08:13;;;;;;;2.63;0.73;;;;;;;15.79;75.84;99324.25;2196154;40;20031;-78
2021/08/08 04:09:45;;;;;;;3.05;1.00;;;;;;;15.81;75.78;99335.69;2198403;40;20042;-78
2021/08/08 04:11:17;;;;;;;4.10;0.57;;;;;;;15.83;75.56;99325.56;2196492;40;20331;-78
2021/08/08 04:12:49;;;;;;;3.40;0.82;;;;;;;15.81;75.31;99335.69;2195737;40;20398;-79
2021/08/08 04:14:22;;;;;;;2.92;0.88;;;;;;;15.80;75.54;99342.09;2195539;40;20031;-78
2021/08/08 04:15:54;;;;;;;2.60;0.70;;;;;;;15.79;75.52;99345.81;2195844;40;20031;-79
2021/08/08 04:17:26;;;;;;;2.30;0.70;;;;;;;15.76;75.56;99347.06;2196444;40;20061;-78
2021/08/08 04:18:57;;;;;;;2.92;0.90;;;;;;;15.74;75.55;99349.97;2195382;40;20031;-78
2021/08/08 04:20:29;;;;;;;2.70;0.80;;;;;;;15.74;75.54;99355.34;2196304;40;20408;-78
2021/08/08 04:22:02;;;;;;;2.65;0.88;;;;;;;15.73;75.46;99359.06;2196026;40;20045;-78
2021/08/08 04:23:34;;;;;;;4.68;1.10;;;;;;;15.70;75.64;99354.06;2188596;40;20324;-78
2021/08/08 04:25:07;;;;;;;2.72;0.80;;;;;;;15.65;75.59;99364.59;2192722;40;20054;-77
2021/08/08 04:26:39;;;;;;;3.55;0.90;;;;;;;15.59;75.74;99368.06;2181163;40;20039;-77
2021/08/08 04:28:11;;;;;;;2.50;0.68;;;;;;;15.53;75.80;99371.53;2194595;40;20035;-77
2021/08/08 04:29:44;;;;;;;4.18;1.15;;;;;;;15.49;76.03;99372.97;2194157;40;20062;-76
2021/08/08 04:31:16;;;;;;;1.85;0.70;;;;;;;15.46;76.01;99362.56;2196252;40;20055;-77
2021/08/08 04:32:48;;;;;;;3.13;0.85;;;;;;;15.46;76.18;99373.34;2195702;40;20050;-77
2021/08/08 04:34:20;;;;;;;4.18;0.85;;;;;;;15.44;76.47;99374.38;2195452;40;20109;-78
2021/08/08 04:35:53;;;;;;;3.00;1.00;;;;;;;15.43;76.49;99378.06;2194728;40;20054;-74
2021/08/08 04:37:25;;;;;;;4.53;1.00;;;;;;;15.41;76.48;99374.72;2189018;40;20035;-76
2021/08/08 04:38:57;;;;;;;3.80;1.10;;;;;;;15.43;76.48;99374.56;2199456;40;20027;-76
2021/08/08 04:40:29;;;;;;;2.90;0.95;;;;;;;15.44;76.79;99381.63;2195806;40;20296;-77
2021/08/08 04:42:02;;;;;;;5.32;1.38;;;;;;;15.45;76.64;99383.25;2179151;40;20591;-76
2021/08/08 04:43:34;;;;;;;3.03;1.00;;;;;;;15.47;76.69;99378.53;2170542;41;20092;-76
2021/08/08 04:45:09;;;;;;;4.00;1.45;;;;;;;15.48;76.47;99373.97;2184975;40;20050;-76
2021/08/08 04:46:41;;;;;;;5.00;1.00;;;;;;;15.53;76.09;99379.59;2188243;40;20129;-76
2021/08/08 04:48:13;;;;;;;4.22;1.15;;;;;;;15.55;76.14;99372.19;2185581;40;20059;-76
2021/08/08 04:49:45;;;;;;;3.85;1.20;;;;;;;15.61;76.03;99371.38;2186978;40;20814;-76
2021/08/08 04:51:17;;;;;;;3.47;1.40;;;;;;;15.66;75.70;99371.66;2185132;40;20038;-76
2021/08/08 04:52:50;;;;;;;3.35;0.93;;;;;;;15.73;75.42;99371.69;2187627;40;20023;-78
2021/08/08 04:54:22;;;;;;;2.78;0.82;;;;;;;15.79;75.12;99378.16;2187629;40;20066;-77
2021/08/08 04:55:55;;;;;;;4.32;1.45;;;;;;;15.82;75.11;99375.09;2187973;40;20046;-77
2021/08/08 04:57:27;;;;;;;3.67;0.93;;;;;;;15.85;74.76;99369.34;2188399;40;20402;-77
2021/08/08 04:59:00;;;;;;;2.92;1.00;;;;;;;15.87;74.58;99365.41;2188274;40;20105;-76
2021/08/08 05:00:33;;;;;;;2.90;1.00;;;;;;;15.90;74.72;99366.88;2189092;40;20039;-79
2021/08/08 05:02:05;;;;;;;2.95;1.00;;;;;;;15.93;74.29;99363.81;2186338;40;20040;-78
2021/08/08 05:03:37;;;;;;;5.75;1.27;;;;;;;15.97;74.12;99367.75;2184317;40;20040;-78
2021/08/08 05:05:10;;;;;;;4.28;1.00;;;;;;;15.99;74.22;99363.00;2188560;40;20031;-77
2021/08/08 05:06:42;;;;;;;2.78;0.77;;;;;;;16.02;74.25;99368.00;2188598;40;20036;-78
2021/08/08 05:08:14;;;;;;;4.00;0.93;;;;;;;16.09;73.86;99367.22;2190705;40;20043;-78
2021/08/08 05:09:46;;;;;;;3.33;0.88;;;;;;;16.12;73.86;99374.91;2189868;40;20031;-79
2021/08/08 05:11:18;;;;;;;6.93;0.90;;;;;;;16.15;73.68;99374.53;2187091;40;20059;-79
2021/08/08 05:12:51;;;;;;;2.22;0.70;;;;;;;16.13;73.57;99376.59;2190350;40;20049;-79
2021/08/08 05:14:23;;;;;;;2.15;0.70;;;;;;;16.14;73.78;99375.56;2190353;40;20039;-80
2021/08/08 05:15:57;;;;;;;2.22;0.80;;;;;;;16.14;73.57;99375.56;2189364;40;20051;-80
2021/08/08 05:17:30;;;;;;;3.47;0.90;;;;;;;16.11;73.86;99379.47;2192773;40;20113;-81
2021/08/08 05:19:02;;;;;;;5.43;0.95;;;;;;;16.09;73.52;99383.38;2188751;40;20062;-81
2021/08/08 05:20:42;;;;;;;3.03;0.85;;;;;;;16.04;73.85;99378.59;2194057;40;20058;-81
2021/08/08 05:22:14;;;;;;;3.53;1.08;;;;;;;16.01;73.82;99382.53;2191023;40;20040;-80
2021/08/08 05:23:46;;;;;;;3.83;1.13;;;;;;;16.02;73.98;99378.81;2192684;40;20090;-81
2021/08/08 05:25:18;;;;;;;3.90;1.10;;;;;;;16.04;74.21;99382.13;2187823;40;20040;-80
2021/08/08 05:26:51;;;;;;;3.17;1.00;;;;;;;16.10;73.94;99379.66;2191502;40;20035;-81
2021/08/08 05:28:23;;;;;;;3.85;1.08;;;;;;;16.13;74.10;99379.28;2192382;40;20043;-81
2021/08/08 05:29:54;;;;;;;4.95;1.80;;;;;;;16.13;73.98;99390.06;2192179;40;20091;-81
2021/08/08 05:31:28;;;;;;;2.75;0.88;;;;;;;16.16;73.90;99381.56;2194534;40;20050;-80
2021/08/08 05:33:00;;;;;;;4.15;1.38;;;;;;;16.18;73.84;99383.06;2194888;40;20019;-81
2021/08/08 05:34:32;;;;;;;4.68;1.20;;;;;;;16.19;73.84;99382.03;2192068;40;20404;-81
2021/08/08 05:36:05;;;;;;;5.00;0.90;;;;;;;16.20;73.74;99375.56;2190732;40;20044;-80
2021/08/08 05:37:37;;;;;;;3.30;0.90;;;;;;;16.22;73.76;99378.09;2187657;40;20044;-79
2021/08/08 05:39:09;;;;;;;6.57;0.90;;;;;;;16.27;73.47;99391.81;2188737;40;20036;-79
2021/08/08 05:40:41;;;;;;;2.70;0.95;;;;;;;16.31;73.68;99390.41;2188482;40;20051;-80
2021/08/08 05:42:13;;;;;;;2.78;0.90;;;;;;;16.37;73.69;99386.88;2190198;40;20074;-80
2021/08/08 05:43:45;;;;;;;5.43;1.17;;;;;;;16.40;73.20;99391.03;2198676;40;20046;-79
2021/08/08 05:45:21;;;;;;;4.50;1.02;;;;;;;16.44;73.31;99400.41;2195244;40;20046;-80
2021/08/08 05:46:54;;;;;;;5.85;1.27;;;;;;;16.51;73.02;99401.28;2196512;40;20404;-80
2021/08/08 05:48:26;;;;;;;4.25;1.40;;;;;;;16.59;72.66;99399.44;2198946;40;20070;-79
2021/08/08 05:49:58;;;;;;;4.35;0.93;;;;;;;16.67;72.47;99404.69;2196649;40;20046;-80
2021/08/08 05:51:30;;;;;;;3.38;0.90;;;;;;;16.74;72.09;99405.56;2197437;40;20039;-79
2021/08/08 05:53:02;;;;;;;3.90;1.05;;;;;;;16.84;72.11;99402.47;2196847;40;20035;-80
2021/08/08 05:54:34;;;;;;;4.78;1.33;;;;;;;16.93;71.62;99395.03;2197370;40;20051;-80
2021/08/08 05:56:08;;;;;;;4.35;1.17;;;;;;;17.01;71.09;99397.59;2197470;40;20400;-80
2021/08/08 05:57:40;;;;;;;4.35;1.00;;;;;;;17.08;71.21;99398.44;2199008;40;20043;-79
2021/08/08 05:59:14;;;;;;;3.22;0.85;;;;;;;17.17;70.64;99407.19;2197929;40;20133;-80
2021/08/08 06:00:54;;;;;;;3.65;1.08;;;;;;;17.23;70.31;99400.16;2199274;40;20066;-81
2021/08/08 06:02:28;;;;;;;4.37;0.90;;;;;;;17.29;70.31;99407.44;2195590;40;20023;-82
2021/08/08 06:04:00;;;;;;;3.75;0.85;;;;;;;17.34;70.00;99414.91;2199035;40;20355;-81
2021/08/08 06:05:32;;;;;;;3.45;1.00;;;;;;;17.35;69.87;99416.59;2198084;40;20050;-81
2021/08/08 06:07:05;;;;;;;3.45;0.88;;;;;;;17.36;69.92;99416.38;2200139;40;20055;-80
2021/08/08 06:08:37;;;;;;;3.75;1.00;;;;;;;17.38;69.62;99418.88;2199783;40;20135;-80
2021/08/08 06:10:09;;;;;;;3.05;1.05;;;;;;;17.39;70.00;99424.06;2197588;40;20023;-79
2021/08/08 06:11:41;;;;;;;3.05;0.95;;;;;;;17.43;69.71;99427.19;2202364;40;20054;-79
2021/08/08 06:13:12;;;;;;;3.08;0.90;;;;;;;17.49;69.66;99429.06;2201413;40;20069;-80
2021/08/08 06:14:44;;;;;;;2.90;0.88;;;;;;;17.55;69.29;99430.13;2195086;40;20046;-79
2021/08/08 06:16:16;;;;;;;7.82;1.95;;;;;;;17.58;68.78;99433.25;2196002;40;20027;-79
2021/08/08 06:17:50;;;;;;;3.88;1.00;;;;;;;17.65;68.36;99432.44;2195579;40;20072;-78
2021/08/08 06:19:22;;;;;;;2.85;0.85;;;;;;;17.71;68.29;99432.41;2196218;40;20042;-78
2021/08/08 06:20:56;;;;;;;5.38;1.20;;;;;;;17.75;67.94;99435.56;2195044;40;20400;-79
2021/08/08 06:22:28;;;;;;;5.38;1.10;;;;;;;17.75;67.05;99432.88;2196469;40;20136;-78
2021/08/08 06:24:00;;;;;;;3.63;1.40;;;;;;;17.76;67.04;99429.09;2196167;40;20373;-80
2021/08/08 06:25:32;;;;;;;3.67;1.00;;;;;;;17.81;66.78;99445.53;2196792;40;20039;-78
2021/08/08 06:27:08;;;;;;;6.78;1.85;;;;;;;17.84;66.89;99450.53;2195955;40;20035;-79
2021/08/08 06:28:40;;;;;;;3.88;1.23;;;;;;;17.86;66.78;99448.44;2196421;40;20038;-80
2021/08/08 06:30:13;;;;;;;3.83;1.00;;;;;;;17.87;66.68;99444.69;2196326;40;20346;-79
2021/08/08 06:31:44;;;;;;;4.35;1.10;;;;;;;17.92;67.10;99453.03;2196211;40;20041;-79
2021/08/08 06:33:19;;;;;;;5.43;1.33;;;;;;;17.98;66.87;99451.41;2192686;40;20042;-77
2021/08/08 06:34:51;;;;;;;4.88;1.38;;;;;;;17.98;67.05;99445.16;2196242;40;20019;-79
2021/08/08 06:36:23;;;;;;;4.10;1.05;;;;;;;18.01;67.08;99439.34;2197834;40;20057;-81
2021/08/08 06:37:54;;;;;;;5.03;1.05;;;;;;;18.03;67.57;99448.09;2196765;40;20034;-81
2021/08/08 06:39:26;;;;;;;4.03;1.17;;;;;;;18.09;67.59;99447.25;2196530;40;20097;-77
2021/08/08 06:40:58;;;;;;;3.38;1.10;;;;;;;18.12;67.26;99445.97;2195222;40;20030;-78
2021/08/08 06:42:30;;;;;;;5.32;1.30;;;;;;;18.16;67.15;99456.19;2195586;40;20050;-79
2021/08/08 06:44:02;;;;;;;3.50;1.00;;;;;;;18.17;66.97;99449.72;2195568;40;20035;-77
2021/08/08 06:45:34;;;;;;;10.73;1.67;;;;;;;18.16;67.06;99458.88;2195462;40;20053;-79
2021/08/08 06:47:06;;;;;;;4.20;1.00;;;;;;;18.14;66.85;99450.13;2188385;40;20734;-78
2021/08/08 06:48:39;;;;;;;4.15;1.25;;;;;;;18.18;67.16;99450.56;2194913;40;20059;-78
2021/08/08 06:50:11;;;;;;;3.72;1.27;;;;;;;18.15;67.13;99440.97;2195732;40;20587;-77
2021/08/08 06:51:43;;;;;;;4.22;1.15;;;;;;;18.13;66.80;99440.38;2196003;40;20274;-79
2021/08/08 06:53:14;;;;;;;4.35;1.15;;;;;;;18.19;66.96;99452.22;2195368;40;20035;-78
2021/08/08 06:54:46;;;;;;;4.55;0.90;;;;;;;18.26;66.83;99446.81;2198649;40;20049;-77
2021/08/08 06:56:18;;;;;;;4.10;1.05;;;;;;;18.35;66.74;99446.41;2192196;40;20038;-80
2021/08/08 06:57:50;;;;;;;4.68;1.38;;;;;;;18.40;66.45;99448.47;2194593;40;20031;-78
2021/08/08 06:59:22;;;;;;;4.65;1.20;;;;;;;18.39;66.06;99453.03;2192520;40;20051;-80
2021/08/08 07:00:54;;;;;;;3.78;1.05;;;;;;;18.36;66.12;99458.03;2195159;40;20038;-77
2021/08/08 07:02:26;;;;;;;4.22;1.10;;;;;;;18.34;66.03;99462.81;2197416;40;20039;-80
2021/08/08 07:03:58;;;;;;;2.85;0.90;;;;;;;18.28;66.19;99469.91;2194963;40;20050;-79
2021/08/08 07:05:30;;;;;;;4.90;1.20;;;;;;;18.26;65.95;99469.28;2196014;40;20054;-79
2021/08/08 07:07:01;;;;;;;3.10;1.05;;;;;;;18.31;66.25;99476.78;2194204;40;20053;-80
2021/08/08 07:08:33;;;;;;;4.10;1.20;;;;;;;18.42;65.65;99468.00;2196442;40;20042;-79
2021/08/08 07:10:06;;;;;;;4.32;1.27;;;;;;;18.50;65.53;99472.38;2196130;40;20062;-81
2021/08/08 07:11:38;;;;;;;4.40;1.33;;;;;;;18.49;65.59;99463.44;2196071;40;20049;-79
2021/08/08 07:13:10;;;;;;;5.30;1.15;;;;;;;18.62;65.20;99457.16;2197362;40;20108;-80
2021/08/08 07:14:42;;;;;;;3.55;1.10;;;;;;;18.76;64.73;99466.06;2197942;40;20047;-80
2021/08/08 07:16:15;;;;;;;3.97;1.10;;;;;;;18.90;64.42;99466.00;2196775;40;20547;-79